• Join FlightAware (Why Join?)
  • Login
  • US Flag 
05:04PM EDT


 

Airport Tracker/Info


-or-


 

Live Flight TrackerFlight Track Log ✈ SWA542 ✈ 11-Apr-2013 ✈ KMDW - KCMH

Flight Track Log - Related Links

Times and Time Zones

All times are in EDT time to prevent confusion due to time zone crossing. See the SWA542 flight status page for this flight to view local times or setup timezone preferences in your user account.

Time Position Orientation Groundspeed Altitude Reporting Facility
EDT Latitude Longitude Course Direction KTS MPH feet Rate Location/Type
11:01PM 41.8317 -87.7656 82° East 194 223 3,300  Level Chicago Center
11:02PM 41.8394 -87.6903 82° East 264 304 5,100 780 Climbing Chicago Center
11:03PM 41.8056 -87.6025 117° Southeast 265 305 5,000 60 Descending Chicago Center
11:04PM 41.7900 -87.5042 102° East 268 308 5,300 1,800 Climbing Chicago Center
11:05PM 41.7847 -87.3975 94° East 282 325 8,700 3,480 Climbing Chicago Center
11:06PM 41.7786 -87.2883 94° East 292 336 12,600 3,840 Climbing Chicago Center
11:07PM 41.7689 -87.1464 95° East 312 359 16,600 3,540 Climbing Chicago Center
11:08PM 41.7628 -87.0114 93° East 352 405 19,800 2,640 Climbing Chicago Center
11:09PM 41.7650 -86.8608 89° East 392 451 22,100 1,560 Climbing Chicago Center
11:10PM 41.7658 -86.7000 90° East 425 489 23,000 420 Climbing Chicago Center
11:11PM 41.7669 -86.5356 89° East 438 504 23,000  Level Chicago Center
11:12PM 41.7672 -86.3753 90° East 434 499 23,000  Level Chicago Center
11:13PM 41.7658 -86.2161 91° East 431 496 23,000 360 Level Chicago Center
11:14PM 41.7611 -86.0544 92° East 431 496 23,800 1,740 Climbing Chicago Center
11:15PM 41.7217 -85.9172 111° Southeast 409 471 26,600 2,520 Climbing Chicago Center
11:16PM 41.6358 -85.8042 135° Southeast 370 426 29,000 1,140 Climbing Chicago Center
11:17PM 41.5644 -85.7094 135° Southeast 366 421 29,000  Level Chicago Center
11:19PM 41.4928 -85.6158 136° Southeast 367 422 29,000  Level Chicago Center
11:20PM 41.4219 -85.5211 135° Southeast 367 422 29,000  Level Chicago Center
11:21PM 41.3497 -85.4253 135° Southeast 370 426 29,000  Level Chicago Center
11:22PM 41.2769 -85.3294 135° Southeast 371 427 29,000  Level Chicago Center
11:23PM 41.2036 -85.2339 136° Southeast 372 428 29,000  Level Chicago Center
11:24PM 41.1144 -85.1189 136° Southeast 375 432 29,000  Level Chicago Center
11:25PM 41.0411 -85.0233 135° Southeast 374 430 29,000 -360 Level Chicago Center
11:26PM 40.9672 -84.9281 136° Southeast 372 428 28,300 -1,620 Descending Chicago Center
11:27PM 40.8944 -84.8350 136° Southeast 368 423 25,800 -2,100 Descending Chicago Center
11:28PM 40.8353 -84.7231 125° Southeast 385 443 24,000 -1,380 Descending Chicago Center
11:29PM 40.7933 -84.5911 113° Southeast 396 456 23,000 -540 Descending Chicago Center
11:30PM 40.7525 -84.4597 112° Southeast 393 452 23,000  Level Chicago Center
11:31PM 40.7128 -84.3333 112° Southeast 380 437 23,000  Level Chicago Center
11:32PM 40.6733 -84.2056 112° Southeast 378 435 23,000 -540 Level Chicago Center
11:33PM 40.6278 -84.0522 111° Southeast 376 433 21,900 -1,680 Descending Chicago Center
11:34PM 40.5800 -83.9061 113° Southeast 373 429 19,400 -2,160 Descending Indianapolis Center
11:34PM 40.5597 -83.8472 114° Southeast 376 433 18,500 -2,280 Descending Indianapolis Center
11:35PM 40.5400 -83.7781 111° Southeast 374 430 17,100 -2,160 Descending Indianapolis Center
11:36PM 40.4986 -83.6525 113° Southeast 371 427 15,000 -2,100 Descending Indianapolis Center
11:37PM 40.4600 -83.5275 112° Southeast 368 423 12,900 -1,920 Descending Indianapolis Center
11:38PM 40.4153 -83.4131 117° Southeast 352 405 11,200 -1,380 Descending Indianapolis Center
11:39PM 40.3744 -83.3089 117° Southeast 323 372 10,100 -900 Descending Indianapolis Center
11:39PM 40.3608 -83.2714 115° Southeast 294 338 10,000 -120 Descending Indianapolis Center
11:40PM 40.3397 -83.2147 116° Southeast 289 333 10,000  Level Indianapolis Center
11:40PM 40.3214 -83.1736 120° Southeast 291 335 10,000  Level Indianapolis Center
11:41PM 40.3033 -83.1194 114° Southeast 288 331 10,000 -300 Level Indianapolis Center
11:41PM 40.2883 -83.0794 116° Southeast 288 331 9,700 -1,320 Descending Indianapolis Center
11:42PM 40.2683 -83.0228 115° Southeast 289 333 8,700 -1,500 Descending Indianapolis Center
11:43PM 40.2192 -82.9242 123° Southeast 269 310 7,000 -1,560 Descending Indianapolis Center
11:44PM 40.1861 -82.8550 122° Southeast 267 307 5,600 -1,500 Descending Indianapolis Center
11:45PM 40.1422 -82.7781 127° Southeast 265 305 4,200 -840 Descending Indianapolis Center
11:46PM 40.1056 -82.7122 126° Southeast 215 247 4,000 -660 Descending Indianapolis Center
11:47PM 40.0606 -82.6661 142° Southeast 197 227 3,000 -480 Descending Indianapolis Center
11:48PM 40.0067 -82.6631 178° South 200 230 3,000  Level Indianapolis Center
11:49PM 39.9861 -82.7208 245° Southwest 181 208 3,000 -420 Level Indianapolis Center
11:50PM 39.9867 -82.7836 271° West 174 200 2,200 -900 Descending Indianapolis Center
11:51PM 39.9919 -82.8475 276° West 160 184 1,200 -600 Descending Indianapolis Center
11:52PM 39.9956 -82.9000 275° West 159 183 1,100 -120 Descending Indianapolis Center